Elk Mills, Maryland
Current Conditions -  °F | °C
As of 3:40 AM on Monday 26 Jan 2015 (Local Time) from KILG Reporting Station
Overcast Overcast  
Wind Chill: 19°   Ceiling: 1500
Heat Index: 31°   Visibility: 10mi
Dew Point: 25°   Wind: 18mph
Humidity: 79%   Direction: 60°ENE
Pressure: 29.92"   Gusts: NA
Location:  39.66°N, 75.83°W
Report Text: KILG 260840Z AUTO 06016KT 10SM BKN015 OVC050 M01/M04 A2992 RMK AO2 T10061039
Loading
Personal Weather Stations






























Interactive Weather Map New forecast layout! Learn more

10-Day Weather Forecast

Advertisements
Track Severe Weather on mobile